sensor_id;sensor_type;location;lat;lon;timestamp;P1;durP1;ratioP1;P2;durP2;ratioP2
18425;SDS011;9340;48.756;9.226;2023-06-19T00:00:03;8.63;;;7.95;;
18425;SDS011;9340;48.756;9.226;2023-06-19T00:02:37;9.02;;;8.23;;
18425;SDS011;9340;48.756;9.226;2023-06-19T00:05:04;8.93;;;8.18;;
18425;SDS011;9340;48.756;9.226;2023-06-19T00:07:31;8.77;;;8.10;;
18425;SDS011;9340;48.756;9.226;2023-06-19T00:09:57;8.60;;;7.93;;
18425;SDS011;9340;48.756;9.226;2023-06-19T00:12:24;8.48;;;7.88;;
18425;SDS011;9340;48.756;9.226;2023-06-19T00:14:52;8.93;;;8.23;;
18425;SDS011;9340;48.756;9.226;2023-06-19T00:17:19;8.65;;;7.90;;
18425;SDS011;9340;48.756;9.226;2023-06-19T00:19:45;8.88;;;8.27;;
18425;SDS011;9340;48.756;9.226;2023-06-19T00:22:14;8.82;;;8.13;;
18425;SDS011;9340;48.756;9.226;2023-06-19T00:24:41;8.75;;;8.15;;
18425;SDS011;9340;48.756;9.226;2023-06-19T00:27:07;8.27;;;7.68;;
18425;SDS011;9340;48.756;9.226;2023-06-19T00:29:34;9.18;;;8.48;;
18425;SDS011;9340;48.756;9.226;2023-06-19T00:32:02;8.52;;;7.82;;
18425;SDS011;9340;48.756;9.226;2023-06-19T00:34:29;8.55;;;7.95;;
18425;SDS011;9340;48.756;9.226;2023-06-19T00:36:56;9.05;;;8.20;;
18425;SDS011;9340;48.756;9.226;2023-06-19T00:39:23;8.40;;;7.60;;
18425;SDS011;9340;48.756;9.226;2023-06-19T00:41:51;8.50;;;7.80;;
18425;SDS011;9340;48.756;9.226;2023-06-19T00:44:18;8.73;;;8.10;;
18425;SDS011;9340;48.756;9.226;2023-06-19T00:46:45;8.52;;;7.82;;
18425;SDS011;9340;48.756;9.226;2023-06-19T00:49:13;8.30;;;7.63;;
18425;SDS011;9340;48.756;9.226;2023-06-19T00:51:41;8.10;;;7.50;;
18425;SDS011;9340;48.756;9.226;2023-06-19T00:54:07;8.00;;;7.50;;
18425;SDS011;9340;48.756;9.226;2023-06-19T00:56:35;8.38;;;7.68;;
18425;SDS011;9340;48.756;9.226;2023-06-19T00:59:05;7.57;;;6.97;;
18425;SDS011;9340;48.756;9.226;2023-06-19T01:01:37;8.55;;;7.88;;
18425;SDS011;9340;48.756;9.226;2023-06-19T01:04:04;8.85;;;8.15;;
18425;SDS011;9340;48.756;9.226;2023-06-19T01:06:35;8.82;;;7.80;;
18425;SDS011;9340;48.756;9.226;2023-06-19T01:09:10;8.50;;;7.75;;
18425;SDS011;9340;48.756;9.226;2023-06-19T01:11:42;8.25;;;7.65;;
18425;SDS011;9340;48.756;9.226;2023-06-19T01:14:12;8.43;;;7.63;;
18425;SDS011;9340;48.756;9.226;2023-06-19T01:16:43;8.45;;;7.85;;
18425;SDS011;9340;48.756;9.226;2023-06-19T01:19:11;8.15;;;7.55;;
18425;SDS011;9340;48.756;9.226;2023-06-19T01:21:47;8.65;;;8.05;;
18425;SDS011;9340;48.756;9.226;2023-06-19T01:24:16;8.02;;;7.40;;
18425;SDS011;9340;48.756;9.226;2023-06-19T01:26:43;8.02;;;7.40;;
18425;SDS011;9340;48.756;9.226;2023-06-19T01:29:11;8.60;;;6.85;;
18425;SDS011;9340;48.756;9.226;2023-06-19T01:31:42;7.50;;;6.80;;
18425;SDS011;9340;48.756;9.226;2023-06-19T01:34:14;6.88;;;6.38;;
18425;SDS011;9340;48.756;9.226;2023-06-19T01:36:43;8.23;;;7.47;;
18425;SDS011;9340;48.756;9.226;2023-06-19T01:39:11;7.47;;;6.57;;
18425;SDS011;9340;48.756;9.226;2023-06-19T01:41:40;6.70;;;6.10;;
18425;SDS011;9340;48.756;9.226;2023-06-19T01:44:08;6.75;;;6.15;;
18425;SDS011;9340;48.756;9.226;2023-06-19T01:46:35;7.20;;;6.70;;
18425;SDS011;9340;48.756;9.226;2023-06-19T01:49:02;7.45;;;6.75;;
18425;SDS011;9340;48.756;9.226;2023-06-19T01:51:32;6.85;;;6.25;;
18425;SDS011;9340;48.756;9.226;2023-06-19T01:53:59;6.70;;;6.20;;
18425;SDS011;9340;48.756;9.226;2023-06-19T01:56:25;6.78;;;6.28;;
18425;SDS011;9340;48.756;9.226;2023-06-19T01:58:54;5.93;;;5.47;;
18425;SDS011;9340;48.756;9.226;2023-06-19T02:01:20;7.10;;;6.43;;
18425;SDS011;9340;48.756;9.226;2023-06-19T02:03:47;6.22;;;5.72;;
18425;SDS011;9340;48.756;9.226;2023-06-19T02:06:14;6.55;;;6.07;;
18425;SDS011;9340;48.756;9.226;2023-06-19T02:08:41;8.02;;;6.60;;
18425;SDS011;9340;48.756;9.226;2023-06-19T02:11:07;6.32;;;5.93;;
18425;SDS011;9340;48.756;9.226;2023-06-19T02:13:34;6.15;;;5.75;;
18425;SDS011;9340;48.756;9.226;2023-06-19T02:16:02;6.55;;;6.05;;
18425;SDS011;9340;48.756;9.226;2023-06-19T02:18:29;6.10;;;5.65;;
18425;SDS011;9340;48.756;9.226;2023-06-19T02:20:56;6.35;;;5.78;;
18425;SDS011;9340;48.756;9.226;2023-06-19T02:23:22;6.22;;;5.82;;
18425;SDS011;9340;48.756;9.226;2023-06-19T02:25:49;7.13;;;6.45;;
18425;SDS011;9340;48.756;9.226;2023-06-19T02:28:16;7.03;;;6.43;;
18425;SDS011;9340;48.756;9.226;2023-06-19T02:30:42;6.40;;;5.85;;
18425;SDS011;9340;48.756;9.226;2023-06-19T02:33:11;6.47;;;6.07;;
18425;SDS011;9340;48.756;9.226;2023-06-19T02:35:38;6.50;;;5.70;;
18425;SDS011;9340;48.756;9.226;2023-06-19T02:38:06;6.72;;;6.22;;
18425;SDS011;9340;48.756;9.226;2023-06-19T02:40:33;6.50;;;5.65;;
18425;SDS011;9340;48.756;9.226;2023-06-19T02:42:59;6.82;;;6.32;;
18425;SDS011;9340;48.756;9.226;2023-06-19T02:45:26;6.38;;;5.88;;
18425;SDS011;9340;48.756;9.226;2023-06-19T02:47:53;6.18;;;5.78;;
18425;SDS011;9340;48.756;9.226;2023-06-19T02:50:21;6.18;;;5.70;;
18425;SDS011;9340;48.756;9.226;2023-06-19T02:52:48;7.82;;;5.80;;
18425;SDS011;9340;48.756;9.226;2023-06-19T02:55:14;6.80;;;6.10;;
18425;SDS011;9340;48.756;9.226;2023-06-19T02:57:41;6.63;;;6.13;;
18425;SDS011;9340;48.756;9.226;2023-06-19T03:00:09;6.55;;;5.97;;
18425;SDS011;9340;48.756;9.226;2023-06-19T03:02:38;6.43;;;5.93;;
18425;SDS011;9340;48.756;9.226;2023-06-19T03:05:07;6.68;;;6.18;;
18425;SDS011;9340;48.756;9.226;2023-06-19T03:07:36;6.20;;;5.80;;
18425;SDS011;9340;48.756;9.226;2023-06-19T03:10:03;6.18;;;5.72;;
18425;SDS011;9340;48.756;9.226;2023-06-19T03:12:30;6.00;;;5.60;;
18425;SDS011;9340;48.756;9.226;2023-06-19T03:14:57;6.38;;;5.80;;
18425;SDS011;9340;48.756;9.226;2023-06-19T03:17:23;5.75;;;5.13;;
18425;SDS011;9340;48.756;9.226;2023-06-19T03:19:50;6.47;;;6.00;;
18425;SDS011;9340;48.756;9.226;2023-06-19T03:22:17;6.40;;;5.70;;
18425;SDS011;9340;48.756;9.226;2023-06-19T03:24:46;5.80;;;5.40;;
18425;SDS011;9340;48.756;9.226;2023-06-19T03:27:14;6.00;;;5.50;;
18425;SDS011;9340;48.756;9.226;2023-06-19T03:29:40;6.97;;;6.18;;
18425;SDS011;9340;48.756;9.226;2023-06-19T03:32:07;6.22;;;5.72;;
18425;SDS011;9340;48.756;9.226;2023-06-19T03:34:34;6.60;;;6.10;;
18425;SDS011;9340;48.756;9.226;2023-06-19T03:37:00;6.28;;;5.78;;
18425;SDS011;9340;48.756;9.226;2023-06-19T03:39:27;5.63;;;5.22;;
18425;SDS011;9340;48.756;9.226;2023-06-19T03:41:55;5.82;;;5.32;;
18425;SDS011;9340;48.756;9.226;2023-06-19T03:44:22;5.20;;;4.80;;
18425;SDS011;9340;48.756;9.226;2023-06-19T03:46:49;5.30;;;4.93;;
18425;SDS011;9340;48.756;9.226;2023-06-19T03:49:16;5.70;;;5.30;;
18425;SDS011;9340;48.756;9.226;2023-06-19T03:51:43;5.30;;;4.70;;
18425;SDS011;9340;48.756;9.226;2023-06-19T03:54:09;5.40;;;4.55;;
18425;SDS011;9340;48.756;9.226;2023-06-19T03:56:36;5.13;;;4.80;;
18425;SDS011;9340;48.756;9.226;2023-06-19T03:59:05;5.43;;;4.90;;
18425;SDS011;9340;48.756;9.226;2023-06-19T04:01:32;5.68;;;5.30;;
18425;SDS011;9340;48.756;9.226;2023-06-19T04:03:59;5.20;;;4.85;;
18425;SDS011;9340;48.756;9.226;2023-06-19T04:06:25;5.63;;;5.18;;
18425;SDS011;9340;48.756;9.226;2023-06-19T04:08:52;5.70;;;5.30;;
18425;SDS011;9340;48.756;9.226;2023-06-19T04:11:18;5.88;;;5.47;;
18425;SDS011;9340;48.756;9.226;2023-06-19T04:13:45;5.03;;;4.65;;
18425;SDS011;9340;48.756;9.226;2023-06-19T04:16:13;6.70;;;6.20;;
18425;SDS011;9340;48.756;9.226;2023-06-19T04:18:40;6.55;;;5.95;;
18425;SDS011;9340;48.756;9.226;2023-06-19T04:21:07;5.97;;;5.57;;
18425;SDS011;9340;48.756;9.226;2023-06-19T04:23:33;6.13;;;5.53;;
18425;SDS011;9340;48.756;9.226;2023-06-19T04:26:00;6.57;;;5.97;;
18425;SDS011;9340;48.756;9.226;2023-06-19T04:28:27;6.18;;;5.68;;
18425;SDS011;9340;48.756;9.226;2023-06-19T04:30:53;5.70;;;5.30;;
18425;SDS011;9340;48.756;9.226;2023-06-19T04:33:27;6.15;;;5.75;;
18425;SDS011;9340;48.756;9.226;2023-06-19T04:35:54;5.70;;;5.20;;
18425;SDS011;9340;48.756;9.226;2023-06-19T04:38:21;5.50;;;5.05;;
18425;SDS011;9340;48.756;9.226;2023-06-19T04:40:49;5.25;;;4.85;;
18425;SDS011;9340;48.756;9.226;2023-06-19T04:43:15;5.75;;;5.00;;
18425;SDS011;9340;48.756;9.226;2023-06-19T04:45:42;5.53;;;5.13;;
18425;SDS011;9340;48.756;9.226;2023-06-19T04:48:09;5.50;;;5.10;;
18425;SDS011;9340;48.756;9.226;2023-06-19T04:50:37;5.30;;;4.90;;
18425;SDS011;9340;48.756;9.226;2023-06-19T04:53:04;5.38;;;4.97;;
18425;SDS011;9340;48.756;9.226;2023-06-19T04:55:31;5.50;;;5.10;;
18425;SDS011;9340;48.756;9.226;2023-06-19T04:57:58;5.97;;;5.15;;
18425;SDS011;9340;48.756;9.226;2023-06-19T05:00:24;4.93;;;4.53;;
18425;SDS011;9340;48.756;9.226;2023-06-19T05:02:51;5.20;;;4.70;;
18425;SDS011;9340;48.756;9.226;2023-06-19T05:05:18;5.10;;;4.72;;
18425;SDS011;9340;48.756;9.226;2023-06-19T05:07:46;5.60;;;5.20;;
18425;SDS011;9340;48.756;9.226;2023-06-19T05:10:13;4.80;;;4.40;;
18425;SDS011;9340;48.756;9.226;2023-06-19T05:12:40;5.00;;;4.63;;
18425;SDS011;9340;48.756;9.226;2023-06-19T05:15:07;4.88;;;4.47;;
18425;SDS011;9340;48.756;9.226;2023-06-19T05:17:34;4.30;;;4.00;;
18425;SDS011;9340;48.756;9.226;2023-06-19T05:20:04;4.45;;;4.15;;
18425;SDS011;9340;48.756;9.226;2023-06-19T05:22:32;4.28;;;3.90;;
18425;SDS011;9340;48.756;9.226;2023-06-19T05:25:00;3.88;;;3.58;;
18425;SDS011;9340;48.756;9.226;2023-06-19T05:27:28;4.28;;;3.90;;
18425;SDS011;9340;48.756;9.226;2023-06-19T05:29:55;3.95;;;3.65;;
18425;SDS011;9340;48.756;9.226;2023-06-19T05:32:21;4.28;;;3.97;;
18425;SDS011;9340;48.756;9.226;2023-06-19T05:34:48;4.45;;;4.15;;
18425;SDS011;9340;48.756;9.226;2023-06-19T05:37:15;4.53;;;4.13;;
18425;SDS011;9340;48.756;9.226;2023-06-19T05:39:42;4.43;;;4.13;;
18425;SDS011;9340;48.756;9.226;2023-06-19T05:42:10;4.63;;;4.25;;
18425;SDS011;9340;48.756;9.226;2023-06-19T05:44:37;4.43;;;4.13;;
18425;SDS011;9340;48.756;9.226;2023-06-19T05:47:05;4.38;;;4.07;;
18425;SDS011;9340;48.756;9.226;2023-06-19T05:49:32;5.78;;;4.50;;
18425;SDS011;9340;48.756;9.226;2023-06-19T05:51:58;3.90;;;3.60;;
18425;SDS011;9340;48.756;9.226;2023-06-19T05:54:26;4.93;;;4.03;;
18425;SDS011;9340;48.756;9.226;2023-06-19T05:56:52;4.78;;;4.38;;
18425;SDS011;9340;48.756;9.226;2023-06-19T05:59:20;4.32;;;4.03;;
18425;SDS011;9340;48.756;9.226;2023-06-19T06:01:47;4.05;;;3.75;;
18425;SDS011;9340;48.756;9.226;2023-06-19T06:04:15;4.35;;;4.05;;
18425;SDS011;9340;48.756;9.226;2023-06-19T06:06:42;4.05;;;3.75;;
18425;SDS011;9340;48.756;9.226;2023-06-19T06:09:08;3.70;;;3.40;;
18425;SDS011;9340;48.756;9.226;2023-06-19T06:11:37;4.00;;;3.70;;
18425;SDS011;9340;48.756;9.226;2023-06-19T06:14:03;4.00;;;3.70;;
18425;SDS011;9340;48.756;9.226;2023-06-19T06:16:31;3.70;;;3.50;;
18425;SDS011;9340;48.756;9.226;2023-06-19T06:18:58;3.88;;;3.58;;
18425;SDS011;9340;48.756;9.226;2023-06-19T06:21:25;4.03;;;3.72;;
18425;SDS011;9340;48.756;9.226;2023-06-19T06:23:51;4.43;;;4.07;;
18425;SDS011;9340;48.756;9.226;2023-06-19T06:26:19;3.92;;;3.67;;
18425;SDS011;9340;48.756;9.226;2023-06-19T06:28:46;4.13;;;3.75;;
18425;SDS011;9340;48.756;9.226;2023-06-19T06:31:13;4.22;;;3.83;;
18425;SDS011;9340;48.756;9.226;2023-06-19T06:33:41;4.50;;;4.10;;
18425;SDS011;9340;48.756;9.226;2023-06-19T06:36:08;4.03;;;3.72;;
18425;SDS011;9340;48.756;9.226;2023-06-19T06:38:34;3.83;;;3.63;;
18425;SDS011;9340;48.756;9.226;2023-06-19T06:41:01;3.95;;;3.65;;
18425;SDS011;9340;48.756;9.226;2023-06-19T06:43:28;4.10;;;3.70;;
18425;SDS011;9340;48.756;9.226;2023-06-19T06:45:54;3.80;;;3.58;;
18425;SDS011;9340;48.756;9.226;2023-06-19T06:48:21;3.90;;;3.63;;
18425;SDS011;9340;48.756;9.226;2023-06-19T06:50:49;3.17;;;2.97;;
18425;SDS011;9340;48.756;9.226;2023-06-19T06:53:17;3.10;;;2.90;;
18425;SDS011;9340;48.756;9.226;2023-06-19T06:55:44;3.42;;;3.13;;
18425;SDS011;9340;48.756;9.226;2023-06-19T06:58:11;3.67;;;3.38;;
18425;SDS011;9340;48.756;9.226;2023-06-19T07:00:39;2.97;;;2.78;;
18425;SDS011;9340;48.756;9.226;2023-06-19T07:03:06;3.28;;;3.08;;
18425;SDS011;9340;48.756;9.226;2023-06-19T07:05:33;3.25;;;2.95;;
18425;SDS011;9340;48.756;9.226;2023-06-19T07:08:01;3.17;;;2.95;;
18425;SDS011;9340;48.756;9.226;2023-06-19T07:10:28;3.05;;;2.85;;
18425;SDS011;9340;48.756;9.226;2023-06-19T07:12:55;3.20;;;3.00;;
18425;SDS011;9340;48.756;9.226;2023-06-19T07:15:22;3.20;;;3.00;;
18425;SDS011;9340;48.756;9.226;2023-06-19T07:17:48;2.90;;;2.70;;
18425;SDS011;9340;48.756;9.226;2023-06-19T07:20:15;2.70;;;2.50;;
18425;SDS011;9340;48.756;9.226;2023-06-19T07:22:42;3.00;;;2.80;;
18425;SDS011;9340;48.756;9.226;2023-06-19T07:25:11;2.88;;;2.67;;
18425;SDS011;9340;48.756;9.226;2023-06-19T07:27:39;2.88;;;2.67;;
18425;SDS011;9340;48.756;9.226;2023-06-19T07:30:07;2.92;;;2.67;;
18425;SDS011;9340;48.756;9.226;2023-06-19T07:32:34;3.42;;;3.17;;
18425;SDS011;9340;48.756;9.226;2023-06-19T07:35:00;2.63;;;2.50;;
18425;SDS011;9340;48.756;9.226;2023-06-19T07:37:27;3.72;;;3.10;;
18425;SDS011;9340;48.756;9.226;2023-06-19T07:39:53;3.05;;;2.85;;
18425;SDS011;9340;48.756;9.226;2023-06-19T07:42:22;2.83;;;2.63;;
18425;SDS011;9340;48.756;9.226;2023-06-19T07:44:48;2.92;;;2.67;;
18425;SDS011;9340;48.756;9.226;2023-06-19T07:47:16;3.00;;;2.80;;
18425;SDS011;9340;48.756;9.226;2023-06-19T07:49:45;3.45;;;3.20;;
18425;SDS011;9340;48.756;9.226;2023-06-19T07:52:12;3.20;;;3.00;;
18425;SDS011;9340;48.756;9.226;2023-06-19T07:54:47;3.03;;;2.83;;
18425;SDS011;9340;48.756;9.226;2023-06-19T07:57:16;2.88;;;2.67;;
18425;SDS011;9340;48.756;9.226;2023-06-19T07:59:44;3.03;;;2.70;;
18425;SDS011;9340;48.756;9.226;2023-06-19T08:02:10;3.10;;;2.90;;
18425;SDS011;9340;48.756;9.226;2023-06-19T08:04:37;3.67;;;3.38;;
18425;SDS011;9340;48.756;9.226;2023-06-19T08:07:04;3.10;;;2.90;;
18425;SDS011;9340;48.756;9.226;2023-06-19T08:09:31;3.28;;;2.92;;
18425;SDS011;9340;48.756;9.226;2023-06-19T08:11:58;4.53;;;3.10;;
18425;SDS011;9340;48.756;9.226;2023-06-19T08:14:24;3.20;;;2.95;;
18425;SDS011;9340;48.756;9.226;2023-06-19T08:16:52;3.33;;;3.13;;
18425;SDS011;9340;48.756;9.226;2023-06-19T08:19:19;3.00;;;2.80;;
18425;SDS011;9340;48.756;9.226;2023-06-19T08:21:45;3.10;;;2.90;;
18425;SDS011;9340;48.756;9.226;2023-06-19T08:24:12;3.20;;;3.00;;
18425;SDS011;9340;48.756;9.226;2023-06-19T08:26:39;2.97;;;2.78;;
18425;SDS011;9340;48.756;9.226;2023-06-19T08:29:05;3.42;;;3.20;;
18425;SDS011;9340;48.756;9.226;2023-06-19T08:31:32;3.30;;;3.00;;
18425;SDS011;9340;48.756;9.226;2023-06-19T08:34:00;3.72;;;2.88;;
18425;SDS011;9340;48.756;9.226;2023-06-19T08:36:31;3.58;;;3.28;;
18425;SDS011;9340;48.756;9.226;2023-06-19T08:38:58;3.47;;;3.20;;
18425;SDS011;9340;48.756;9.226;2023-06-19T08:41:25;3.28;;;3.08;;
18425;SDS011;9340;48.756;9.226;2023-06-19T08:43:53;3.10;;;2.90;;
18425;SDS011;9340;48.756;9.226;2023-06-19T08:46:20;3.40;;;3.20;;
18425;SDS011;9340;48.756;9.226;2023-06-19T08:48:47;2.83;;;2.63;;
18425;SDS011;9340;48.756;9.226;2023-06-19T08:51:15;3.88;;;3.47;;
18425;SDS011;9340;48.756;9.226;2023-06-19T08:53:45;3.53;;;3.10;;
18425;SDS011;9340;48.756;9.226;2023-06-19T08:56:13;3.65;;;3.35;;
18425;SDS011;9340;48.756;9.226;2023-06-19T08:58:39;3.10;;;2.90;;
18425;SDS011;9340;48.756;9.226;2023-06-19T09:01:06;3.58;;;3.28;;
18425;SDS011;9340;48.756;9.226;2023-06-19T09:03:33;3.50;;;3.30;;
18425;SDS011;9340;48.756;9.226;2023-06-19T09:06:02;3.25;;;3.05;;
18425;SDS011;9340;48.756;9.226;2023-06-19T09:08:30;3.97;;;3.33;;
18425;SDS011;9340;48.756;9.226;2023-06-19T09:10:57;3.50;;;3.30;;
18425;SDS011;9340;48.756;9.226;2023-06-19T09:13:25;3.10;;;2.90;;
18425;SDS011;9340;48.756;9.226;2023-06-19T09:15:59;3.35;;;3.10;;
18425;SDS011;9340;48.756;9.226;2023-06-19T09:18:28;3.22;;;3.00;;
18425;SDS011;9340;48.756;9.226;2023-06-19T09:20:57;3.10;;;2.90;;
18425;SDS011;9340;48.756;9.226;2023-06-19T09:23:24;3.55;;;2.88;;
18425;SDS011;9340;48.756;9.226;2023-06-19T09:25:52;3.65;;;3.35;;
18425;SDS011;9340;48.756;9.226;2023-06-19T09:28:21;4.35;;;3.00;;
18425;SDS011;9340;48.756;9.226;2023-06-19T09:30:55;2.95;;;2.75;;
18425;SDS011;9340;48.756;9.226;2023-06-19T09:33:23;3.50;;;3.20;;
18425;SDS011;9340;48.756;9.226;2023-06-19T09:35:51;2.92;;;2.70;;
18425;SDS011;9340;48.756;9.226;2023-06-19T09:38:20;2.72;;;2.53;;
18425;SDS011;9340;48.756;9.226;2023-06-19T09:40:49;2.88;;;2.67;;
18425;SDS011;9340;48.756;9.226;2023-06-19T09:43:18;3.03;;;2.83;;
18425;SDS011;9340;48.756;9.226;2023-06-19T09:45:49;2.97;;;2.78;;
18425;SDS011;9340;48.756;9.226;2023-06-19T09:48:22;3.17;;;2.83;;
18425;SDS011;9340;48.756;9.226;2023-06-19T09:50:54;2.97;;;2.78;;
18425;SDS011;9340;48.756;9.226;2023-06-19T09:53:25;2.67;;;2.40;;
18425;SDS011;9340;48.756;9.226;2023-06-19T09:55:54;2.90;;;2.70;;
18425;SDS011;9340;48.756;9.226;2023-06-19T09:58:21;2.90;;;2.70;;
18425;SDS011;9340;48.756;9.226;2023-06-19T10:00:48;2.72;;;2.60;;
18425;SDS011;9340;48.756;9.226;2023-06-19T10:03:15;2.80;;;2.60;;
18425;SDS011;9340;48.756;9.226;2023-06-19T10:05:43;2.90;;;2.70;;
18425;SDS011;9340;48.756;9.226;2023-06-19T10:08:09;3.17;;;2.97;;
18425;SDS011;9340;48.756;9.226;2023-06-19T10:10:36;3.25;;;3.05;;
18425;SDS011;9340;48.756;9.226;2023-06-19T10:13:15;3.10;;;2.90;;
18425;SDS011;9340;48.756;9.226;2023-06-19T10:15:43;3.22;;;3.03;;
18425;SDS011;9340;48.756;9.226;2023-06-19T10:18:13;3.42;;;3.22;;
18425;SDS011;9340;48.756;9.226;2023-06-19T10:20:42;3.72;;;3.50;;
18425;SDS011;9340;48.756;9.226;2023-06-19T10:23:10;3.80;;;3.50;;
18425;SDS011;9340;48.756;9.226;2023-06-19T10:25:41;3.78;;;3.58;;
18425;SDS011;9340;48.756;9.226;2023-06-19T10:28:19;3.70;;;3.40;;
18425;SDS011;9340;48.756;9.226;2023-06-19T10:30:51;4.15;;;3.85;;
18425;SDS011;9340;48.756;9.226;2023-06-19T10:33:19;4.20;;;3.80;;
18425;SDS011;9340;48.756;9.226;2023-06-19T10:35:46;4.05;;;3.75;;
18425;SDS011;9340;48.756;9.226;2023-06-19T10:38:14;3.97;;;3.50;;
18425;SDS011;9340;48.756;9.226;2023-06-19T10:40:41;4.05;;;3.65;;
18425;SDS011;9340;48.756;9.226;2023-06-19T10:43:08;3.40;;;3.20;;
18425;SDS011;9340;48.756;9.226;2023-06-19T10:45:36;3.75;;;3.47;;
18425;SDS011;9340;48.756;9.226;2023-06-19T10:48:03;3.97;;;3.58;;
18425;SDS011;9340;48.756;9.226;2023-06-19T10:50:33;3.10;;;2.90;;
18425;SDS011;9340;48.756;9.226;2023-06-19T10:53:01;4.32;;;3.97;;
18425;SDS011;9340;48.756;9.226;2023-06-19T10:56:54;4.50;;;4.13;;
18425;SDS011;9340;48.756;9.226;2023-06-19T10:59:22;4.75;;;4.35;;
18425;SDS011;9340;48.756;9.226;2023-06-19T11:01:49;4.30;;;4.00;;
18425;SDS011;9340;48.756;9.226;2023-06-19T11:04:16;4.63;;;4.25;;
18425;SDS011;9340;48.756;9.226;2023-06-19T11:06:43;5.15;;;4.15;;
18425;SDS011;9340;48.756;9.226;2023-06-19T11:09:12;4.55;;;4.13;;
18425;SDS011;9340;48.756;9.226;2023-06-19T11:11:40;4.55;;;4.15;;
18425;SDS011;9340;48.756;9.226;2023-06-19T11:14:09;4.25;;;3.85;;
18425;SDS011;9340;48.756;9.226;2023-06-19T11:16:37;5.05;;;4.65;;
18425;SDS011;9340;48.756;9.226;2023-06-19T11:19:06;4.20;;;3.90;;
18425;SDS011;9340;48.756;9.226;2023-06-19T11:21:34;4.35;;;4.05;;
18425;SDS011;9340;48.756;9.226;2023-06-19T11:24:03;4.85;;;4.45;;
18425;SDS011;9340;48.756;9.226;2023-06-19T11:26:34;4.43;;;4.13;;
18425;SDS011;9340;48.756;9.226;2023-06-19T11:29:14;4.18;;;3.80;;
18425;SDS011;9340;48.756;9.226;2023-06-19T11:31:41;4.25;;;3.95;;
18425;SDS011;9340;48.756;9.226;2023-06-19T11:34:08;5.20;;;4.32;;
18425;SDS011;9340;48.756;9.226;2023-06-19T11:36:36;4.30;;;4.00;;
18425;SDS011;9340;48.756;9.226;2023-06-19T11:39:03;4.53;;;4.20;;
18425;SDS011;9340;48.756;9.226;2023-06-19T11:41:34;4.13;;;3.83;;
18425;SDS011;9340;48.756;9.226;2023-06-19T11:44:02;4.00;;;3.70;;
18425;SDS011;9340;48.756;9.226;2023-06-19T11:46:32;4.53;;;4.22;;
18425;SDS011;9340;48.756;9.226;2023-06-19T11:49:09;4.40;;;4.10;;
18425;SDS011;9340;48.756;9.226;2023-06-19T11:51:37;4.47;;;4.18;;
18425;SDS011;9340;48.756;9.226;2023-06-19T11:54:05;4.22;;;3.90;;
18425;SDS011;9340;48.756;9.226;2023-06-19T11:56:33;4.35;;;4.05;;
18425;SDS011;9340;48.756;9.226;2023-06-19T11:59:00;4.13;;;3.92;;
18425;SDS011;9340;48.756;9.226;2023-06-19T12:01:27;4.95;;;4.47;;
18425;SDS011;9340;48.756;9.226;2023-06-19T12:03:55;4.20;;;4.00;;
18425;SDS011;9340;48.756;9.226;2023-06-19T12:06:22;4.65;;;4.35;;
18425;SDS011;9340;48.756;9.226;2023-06-19T12:08:48;4.25;;;3.85;;
18425;SDS011;9340;48.756;9.226;2023-06-19T12:11:15;4.60;;;4.20;;
18425;SDS011;9340;48.756;9.226;2023-06-19T12:13:42;4.85;;;4.22;;
18425;SDS011;9340;48.756;9.226;2023-06-19T12:16:09;5.07;;;4.68;;
18425;SDS011;9340;48.756;9.226;2023-06-19T12:18:36;5.20;;;4.90;;
18425;SDS011;9340;48.756;9.226;2023-06-19T12:21:04;4.90;;;4.50;;
18425;SDS011;9340;48.756;9.226;2023-06-19T12:23:31;4.75;;;4.35;;
18425;SDS011;9340;48.756;9.226;2023-06-19T12:25:58;4.50;;;4.20;;
18425;SDS011;9340;48.756;9.226;2023-06-19T12:28:25;4.38;;;4.07;;
18425;SDS011;9340;48.756;9.226;2023-06-19T12:30:52;4.78;;;4.38;;
18425;SDS011;9340;48.756;9.226;2023-06-19T12:33:21;4.78;;;4.43;;
18425;SDS011;9340;48.756;9.226;2023-06-19T12:35:47;4.18;;;3.88;;
18425;SDS011;9340;48.756;9.226;2023-06-19T12:38:15;4.63;;;4.22;;
18425;SDS011;9340;48.756;9.226;2023-06-19T12:40:43;4.50;;;4.20;;
18425;SDS011;9340;48.756;9.226;2023-06-19T12:43:10;4.57;;;4.28;;
18425;SDS011;9340;48.756;9.226;2023-06-19T12:45:36;5.00;;;4.47;;
18425;SDS011;9340;48.756;9.226;2023-06-19T12:48:03;4.68;;;4.38;;
18425;SDS011;9340;48.756;9.226;2023-06-19T12:50:30;4.35;;;4.05;;
18425;SDS011;9340;48.756;9.226;2023-06-19T12:52:57;4.60;;;4.13;;
18425;SDS011;9340;48.756;9.226;2023-06-19T12:55:25;4.30;;;4.00;;
18425;SDS011;9340;48.756;9.226;2023-06-19T12:57:52;4.40;;;4.10;;
18425;SDS011;9340;48.756;9.226;2023-06-19T13:00:18;3.95;;;3.70;;
18425;SDS011;9340;48.756;9.226;2023-06-19T13:02:45;4.60;;;4.20;;
18425;SDS011;9340;48.756;9.226;2023-06-19T13:05:12;4.40;;;4.10;;
18425;SDS011;9340;48.756;9.226;2023-06-19T13:07:39;4.43;;;4.13;;
18425;SDS011;9340;48.756;9.226;2023-06-19T13:10:05;4.53;;;4.13;;
18425;SDS011;9340;48.756;9.226;2023-06-19T13:12:34;4.10;;;3.80;;
18425;SDS011;9340;48.756;9.226;2023-06-19T13:15:00;3.95;;;3.75;;
18425;SDS011;9340;48.756;9.226;2023-06-19T13:17:27;6.28;;;4.25;;
18425;SDS011;9340;48.756;9.226;2023-06-19T13:19:54;4.18;;;3.88;;
18425;SDS011;9340;48.756;9.226;2023-06-19T13:22:21;4.25;;;3.85;;
18425;SDS011;9340;48.756;9.226;2023-06-19T13:24:47;4.90;;;4.50;;
18425;SDS011;9340;48.756;9.226;2023-06-19T13:27:14;4.43;;;4.03;;
18425;SDS011;9340;48.756;9.226;2023-06-19T13:29:42;4.97;;;3.92;;
18425;SDS011;9340;48.756;9.226;2023-06-19T13:32:09;4.35;;;3.95;;
18425;SDS011;9340;48.756;9.226;2023-06-19T13:34:35;4.53;;;4.22;;
18425;SDS011;9340;48.756;9.226;2023-06-19T13:37:02;4.97;;;4.57;;
18425;SDS011;9340;48.756;9.226;2023-06-19T13:39:29;5.05;;;4.63;;
18425;SDS011;9340;48.756;9.226;2023-06-19T13:41:56;4.70;;;4.38;;
18425;SDS011;9340;48.756;9.226;2023-06-19T13:44:25;4.32;;;4.03;;
18425;SDS011;9340;48.756;9.226;2023-06-19T13:46:53;4.03;;;3.80;;
18425;SDS011;9340;48.756;9.226;2023-06-19T13:49:20;4.45;;;4.15;;
18425;SDS011;9340;48.756;9.226;2023-06-19T13:51:47;4.60;;;4.20;;
18425;SDS011;9340;48.756;9.226;2023-06-19T13:54:13;4.13;;;3.83;;
18425;SDS011;9340;48.756;9.226;2023-06-19T13:56:40;4.45;;;4.05;;
18425;SDS011;9340;48.756;9.226;2023-06-19T13:59:07;4.55;;;4.25;;
18425;SDS011;9340;48.756;9.226;2023-06-19T14:01:34;4.88;;;4.22;;
18425;SDS011;9340;48.756;9.226;2023-06-19T14:04:02;4.90;;;4.60;;
18425;SDS011;9340;48.756;9.226;2023-06-19T14:06:29;4.63;;;4.32;;
18425;SDS011;9340;48.756;9.226;2023-06-19T14:08:55;4.40;;;4.10;;
18425;SDS011;9340;48.756;9.226;2023-06-19T14:11:22;4.57;;;4.18;;
18425;SDS011;9340;48.756;9.226;2023-06-19T14:13:49;4.80;;;4.50;;
18425;SDS011;9340;48.756;9.226;2023-06-19T14:16:15;4.55;;;4.22;;
18425;SDS011;9340;48.756;9.226;2023-06-19T14:18:42;4.40;;;4.10;;
18425;SDS011;9340;48.756;9.226;2023-06-19T14:21:10;4.63;;;4.22;;
18425;SDS011;9340;48.756;9.226;2023-06-19T14:23:37;4.35;;;4.05;;
18425;SDS011;9340;48.756;9.226;2023-06-19T14:26:08;3.97;;;3.78;;
18425;SDS011;9340;48.756;9.226;2023-06-19T14:28:36;4.50;;;4.20;;
18425;SDS011;9340;48.756;9.226;2023-06-19T14:31:03;4.10;;;3.80;;
18425;SDS011;9340;48.756;9.226;2023-06-19T14:33:30;4.28;;;3.97;;
18425;SDS011;9340;48.756;9.226;2023-06-19T14:35:58;4.15;;;3.78;;
18425;SDS011;9340;48.756;9.226;2023-06-19T14:38:26;4.10;;;3.90;;
18425;SDS011;9340;48.756;9.226;2023-06-19T14:40:56;4.07;;;3.88;;
18425;SDS011;9340;48.756;9.226;2023-06-19T14:43:23;4.47;;;4.18;;
18425;SDS011;9340;48.756;9.226;2023-06-19T14:45:49;4.30;;;4.00;;
18425;SDS011;9340;48.756;9.226;2023-06-19T14:48:16;4.75;;;4.35;;
18425;SDS011;9340;48.756;9.226;2023-06-19T14:50:43;4.75;;;4.45;;
18425;SDS011;9340;48.756;9.226;2023-06-19T14:53:10;4.45;;;4.15;;
18425;SDS011;9340;48.756;9.226;2023-06-19T14:55:38;4.40;;;4.10;;
18425;SDS011;9340;48.756;9.226;2023-06-19T14:58:10;4.18;;;3.90;;
18425;SDS011;9340;48.756;9.226;2023-06-19T15:00:37;4.63;;;4.32;;
18425;SDS011;9340;48.756;9.226;2023-06-19T15:03:04;4.90;;;4.50;;